createdAt,value
2023-04-17T00:07:42.050Z,2.2
2023-04-17T00:17:44.293Z,2.8
2023-04-17T00:27:48.008Z,2.2
2023-04-17T00:37:48.847Z,2.4
2023-04-17T00:47:51.278Z,2.3
2023-04-17T00:57:53.430Z,2.4
2023-04-17T01:07:57.646Z,2.6
2023-04-17T01:17:57.804Z,2.5
2023-04-17T01:27:59.904Z,2.8
2023-04-17T01:38:02.059Z,3
2023-04-17T01:48:04.292Z,2.7
2023-04-17T01:58:06.329Z,3.4
2023-04-17T02:08:08.465Z,2.5
2023-04-17T02:18:10.763Z,2.8
2023-04-17T02:28:12.689Z,3.5
2023-04-17T02:38:14.826Z,3
2023-04-17T02:48:16.803Z,2.9
2023-04-17T02:58:18.932Z,3.1
2023-04-17T03:08:21.172Z,3.3
2023-04-17T03:18:23.128Z,3.2
2023-04-17T03:28:25.034Z,2.7
2023-04-17T03:38:27.059Z,3.1
2023-04-17T03:48:29.209Z,3.2
2023-04-17T03:58:31.104Z,3.2
2023-04-17T04:08:34.572Z,3.1
2023-04-17T04:18:35.232Z,2.6
2023-04-17T04:28:37.201Z,2.3
2023-04-17T04:38:39.174Z,2.5
2023-04-17T04:48:42.648Z,2.6
2023-04-17T04:58:43.374Z,2.2
2023-04-17T05:08:45.226Z,2.4
2023-04-17T05:18:47.210Z,2.3
2023-04-17T05:28:51.104Z,1.8
2023-04-17T05:38:51.159Z,2.1
2023-04-17T05:48:53.203Z,2.1
2023-04-17T05:58:55.300Z,1.6
2023-04-17T06:08:57.210Z,2
2023-04-17T06:18:59.145Z,1.8
2023-04-17T06:29:01.090Z,1.8
2023-04-17T06:39:03.038Z,1.7
2023-04-17T06:49:05.023Z,1.7
2023-04-17T06:59:06.836Z,2.5
2023-04-17T07:09:08.664Z,2.1
2023-04-17T07:19:10.732Z,2.2
2023-04-17T07:29:12.572Z,2.3
2023-04-17T07:39:14.414Z,2
2023-04-17T07:49:16.467Z,2.2
2023-04-17T07:59:18.142Z,2.1
2023-04-17T08:09:20.082Z,1.7
2023-04-17T08:19:21.887Z,2.4
2023-04-17T08:29:23.785Z,2.1
2023-04-17T08:39:25.657Z,2.3
2023-04-17T08:49:27.407Z,3
2023-04-17T08:59:29.211Z,2.5
2023-04-17T09:09:30.925Z,2.5
2023-04-17T09:19:34.669Z,2.5
2023-04-17T09:29:34.458Z,2.3
2023-04-17T09:39:36.259Z,2.4
2023-04-17T09:49:37.887Z,2.4
2023-04-17T09:59:39.596Z,2.6
2023-04-17T10:09:41.256Z,2.8
2023-04-17T10:19:43.005Z,2.9
2023-04-17T10:29:46.029Z,3
2023-04-17T10:39:46.500Z,2.7
2023-04-17T10:49:48.112Z,2.2
2023-04-17T10:59:49.773Z,1.9
2023-04-17T11:09:51.493Z,2.1
2023-04-17T11:19:53.119Z,2.2
2023-04-17T11:29:54.861Z,2.4
2023-04-17T11:39:56.553Z,2.1
2023-04-17T11:49:58.240Z,1.8
2023-04-17T11:59:59.955Z,2
2023-04-17T12:10:01.608Z,2
2023-04-17T12:20:03.268Z,1.9
2023-04-17T12:30:04.935Z,2.1
2023-04-17T12:40:06.519Z,2
2023-04-17T12:50:08.152Z,1.9
2023-04-17T13:00:10.027Z,1.5
2023-04-17T13:10:11.634Z,1.7
2023-04-17T13:20:13.426Z,1.5
2023-04-17T13:30:15.198Z,1.8
2023-04-17T13:40:17.474Z,1.4
2023-04-17T13:50:18.790Z,1.7
2023-04-17T14:00:20.444Z,1.6
2023-04-17T14:10:22.261Z,1.6
2023-04-17T14:20:24.097Z,1.6
2023-04-17T14:30:25.886Z,1.5
2023-04-17T14:40:27.691Z,1.4
2023-04-17T14:50:29.564Z,1.4
2023-04-17T15:00:31.508Z,1.2
2023-04-17T15:10:40.752Z,1.3
2023-04-17T15:20:36.501Z,1.4
2023-04-17T15:30:37.199Z,1.3
2023-04-17T15:40:39.069Z,1
2023-04-17T15:50:41.000Z,1
2023-04-17T16:00:42.884Z,1.5
2023-04-17T16:10:44.768Z,1.3
2023-04-17T16:20:46.674Z,1.2
2023-04-17T16:30:48.654Z,1.6
2023-04-17T16:40:50.598Z,1
2023-04-17T16:50:52.637Z,1
2023-04-17T17:00:54.810Z,1.1
2023-04-17T17:10:56.868Z,1
2023-04-17T17:20:58.886Z,0.9
2023-04-17T17:31:01.007Z,0.8
2023-04-17T17:41:02.946Z,0.9
2023-04-17T17:51:04.963Z,0.9
2023-04-17T18:01:07.040Z,1
2023-04-17T18:11:09.017Z,0.8
2023-04-17T18:21:10.952Z,1.2
2023-04-17T18:31:12.900Z,0.9
2023-04-17T18:41:14.890Z,1.1
2023-04-17T18:51:16.829Z,1.3
2023-04-17T19:01:18.884Z,0.8
2023-04-17T19:11:20.664Z,1
2023-04-17T19:21:22.610Z,0.7
2023-04-17T19:31:24.544Z,0.9
2023-04-17T19:41:26.497Z,0.8
2023-04-17T19:51:28.564Z,0.9
2023-04-17T20:01:30.478Z,1.1
2023-04-17T20:11:32.461Z,0.9
2023-04-17T20:21:34.451Z,1
2023-04-17T20:31:36.671Z,1
2023-04-17T20:41:39.549Z,0.9
2023-04-17T20:51:40.737Z,1.1
2023-04-17T21:01:43.832Z,1.3
2023-04-17T21:11:44.709Z,1.3
2023-04-17T21:21:46.654Z,1.1
2023-04-17T21:31:48.502Z,1.1
2023-04-17T21:41:50.471Z,0.9
2023-04-17T21:51:52.461Z,1.4
2023-04-17T22:01:54.381Z,1.1
2023-04-17T22:11:56.565Z,1.1
2023-04-17T22:21:58.216Z,1
2023-04-17T22:32:00.195Z,0.9
2023-04-17T22:42:01.974Z,1
2023-04-17T22:52:03.961Z,2.3
2023-04-17T23:02:05.796Z,1.3
2023-04-17T23:12:07.596Z,1.1
2023-04-17T23:22:09.413Z,2.4
2023-04-17T23:32:11.009Z,1.1
2023-04-17T23:42:12.762Z,1.1
2023-04-17T23:52:14.414Z,0.8
